Time;durP1;ratioP1;P1;durP2;ratioP2;P2;SDS_P1;SDS_P2;PMS_P1;PMS_P2;Temp;Humidity;BMP_temperature;BMP_pressure;BME280_temperature;BME280_humidity;BME280_pressure;Samples;Min_cycle;Max_cycle;Signal;HPM_P1;HPM_P2
2022/03/28 00:02:01;;;;;;;4.30;2.20;;;22.20;99.90;;;;;;4975137;28;20027;-66
2022/03/28 00:04:29;;;;;;;4.22;1.20;;;22.40;99.90;;;;;;4984616;28;20102;-67
2022/03/28 00:06:56;;;;;;;4.45;1.23;;;22.40;99.90;;;;;;4990007;28;20034;-67
2022/03/28 00:09:23;;;;;;;4.00;2.00;;;22.60;99.90;;;;;;4993013;28;20018;-67
2022/03/28 00:11:51;;;;;;;4.50;1.67;;;22.60;99.90;;;;;;4989918;28;20042;-67
2022/03/28 00:14:18;;;;;;;3.55;1.88;;;22.80;99.90;;;;;;4987944;28;20038;-67
2022/03/28 00:16:45;;;;;;;4.50;1.73;;;22.90;99.90;;;;;;4987161;28;20494;-66
2022/03/28 00:19:13;;;;;;;4.53;1.88;;;23.10;99.90;;;;;;4992963;28;20076;-67
2022/03/28 00:21:40;;;;;;;3.75;1.52;;;23.00;99.90;;;;;;5003563;28;20121;-68
2022/03/28 00:24:08;;;;;;;4.00;1.70;;;22.90;99.90;;;;;;4992679;28;20113;-67
2022/03/28 00:26:35;;;;;;;3.72;1.83;;;22.90;99.90;;;;;;4985977;28;20387;-68
2022/03/28 00:29:02;;;;;;;7.20;1.98;;;23.00;99.90;;;;;;4987773;28;20558;-68
2022/03/28 00:31:30;;;;;;;3.10;1.50;;;23.10;99.90;;;;;;4987745;28;20161;-67
2022/03/28 00:33:57;;;;;;;3.30;1.25;;;23.20;99.90;;;;;;4980480;28;20027;-67
2022/03/28 00:36:24;;;;;;;4.75;1.80;;;23.30;99.90;;;;;;4983168;28;20037;-67
2022/03/28 00:38:52;;;;;;;4.82;2.13;;;23.60;99.90;;;;;;4980325;28;20387;-67
2022/03/28 00:41:19;;;;;;;3.22;1.50;;;23.80;99.90;;;;;;4980470;28;20082;-67
2022/03/28 00:44:00;;;;;;;5.90;1.70;;;23.60;99.90;;;;;;4988913;28;20030;-67
2022/03/28 00:46:27;;;;;;;5.10;2.13;;;23.60;99.90;;;;;;4988932;28;20548;-67
2022/03/28 00:48:55;;;;;;;5.70;1.70;;;23.30;99.90;;;;;;4988900;28;20034;-67
2022/03/28 00:51:23;;;;;;;5.40;1.88;;;23.20;99.90;;;;;;4986173;28;20018;-67
2022/03/28 00:53:51;;;;;;;4.55;2.03;;;23.10;99.90;;;;;;4978302;28;20023;-67
2022/03/28 00:56:19;;;;;;;4.88;2.55;;;22.90;99.90;;;;;;4981668;28;20490;-68
2022/03/28 00:58:47;;;;;;;6.72;2.47;;;22.90;99.90;;;;;;4992315;28;20030;-67
2022/03/28 01:01:14;;;;;;;5.85;3.17;;;22.90;99.90;;;;;;4987237;28;20026;-66
2022/03/28 01:03:41;;;;;;;5.47;2.92;;;22.90;99.90;;;;;;5001756;28;20030;-67
2022/03/28 01:06:09;;;;;;;4.95;3.40;;;22.90;99.90;;;;;;4988190;28;20065;-67
2022/03/28 01:08:37;;;;;;;6.03;3.83;;;22.80;99.90;;;;;;4987424;28;20494;-67
2022/03/28 01:11:08;;;;;;;5.97;3.40;;;22.90;99.90;;;;;;4995852;28;20037;-68
2022/03/28 01:13:36;;;;;;;5.05;1.83;;;22.90;99.90;;;;;;4989279;28;20069;-67
2022/03/28 01:16:08;;;;;;;8.18;2.08;;;23.50;99.90;;;;;;4987273;28;20046;-67
2022/03/28 01:18:36;;;;;;;4.43;1.88;;;23.80;99.90;;;;;;4990485;28;20554;-67
2022/03/28 01:21:04;;;;;;;4.28;2.35;;;23.70;99.90;;;;;;4979908;28;20041;-67
2022/03/28 01:23:32;;;;;;;6.53;2.33;;;23.60;99.90;;;;;;4989201;28;20015;-67
2022/03/28 01:26:00;;;;;;;7.32;2.33;;;23.40;99.90;;;;;;4987467;28;20023;-68
2022/03/28 01:28:27;;;;;;;5.03;2.28;;;23.20;99.90;;;;;;4983394;28;20101;-68
2022/03/28 01:30:55;;;;;;;6.18;2.38;;;23.10;99.90;;;;;;5001895;28;20037;-67
2022/03/28 01:33:23;;;;;;;4.47;2.08;;;23.00;99.90;;;;;;4989597;28;20038;-68
2022/03/28 01:35:53;;;;;;;6.82;2.17;;;23.10;99.90;;;;;;4983989;28;20026;-67
2022/03/28 01:38:22;;;;;;;6.78;2.33;;;23.00;99.90;;;;;;4987099;28;20031;-67
2022/03/28 01:40:54;;;;;;;7.60;2.17;;;22.90;99.90;;;;;;4986721;28;20062;-67
2022/03/28 01:43:22;;;;;;;3.83;2.00;;;22.90;99.90;;;;;;4980165;28;20384;-67
2022/03/28 01:45:50;;;;;;;6.10;2.63;;;23.00;99.90;;;;;;4986536;28;20042;-67
2022/03/28 01:48:17;;;;;;;5.75;2.47;;;23.00;99.90;;;;;;4990079;28;20092;-67
2022/03/28 01:50:45;;;;;;;5.63;2.50;;;23.00;99.90;;;;;;4983159;28;20027;-67
2022/03/28 01:53:12;;;;;;;8.48;3.03;;;23.00;99.90;;;;;;4990030;28;20026;-68
2022/03/28 01:55:40;;;;;;;8.82;3.22;;;22.90;99.90;;;;;;4983468;28;20089;-69
2022/03/28 01:58:08;;;;;;;6.47;2.78;;;22.90;99.90;;;;;;4989434;28;20479;-68
2022/03/28 02:00:36;;;;;;;6.68;2.80;;;22.70;99.90;;;;;;4984892;28;20669;-68
2022/03/28 02:03:03;;;;;;;5.78;2.47;;;22.70;99.90;;;;;;4988871;28;20026;-67
2022/03/28 02:05:31;;;;;;;9.82;3.75;;;22.70;99.90;;;;;;4987943;28;20105;-68
2022/03/28 02:07:59;;;;;;;10.45;3.20;;;22.70;99.90;;;;;;4986266;28;20027;-68
2022/03/28 02:10:27;;;;;;;13.40;2.67;;;22.70;99.90;;;;;;4983591;28;20031;-67
2022/03/28 02:12:55;;;;;;;8.20;3.25;;;22.80;99.90;;;;;;4988647;28;20026;-68
2022/03/28 02:15:22;;;;;;;5.30;2.53;;;22.80;99.90;;;;;;4984578;28;20105;-68
2022/03/28 02:17:53;;;;;;;5.57;2.40;;;22.80;99.90;;;;;;4987216;28;20027;-68
2022/03/28 02:20:21;;;;;;;9.55;3.42;;;22.80;99.90;;;;;;4987714;28;20121;-68
2022/03/28 02:22:48;;;;;;;10.30;3.60;;;22.90;99.90;;;;;;4982402;28;20514;-68
2022/03/28 02:25:17;;;;;;;8.68;3.50;;;23.00;99.90;;;;;;4976619;28;20036;-68
2022/03/28 02:27:45;;;;;;;10.18;2.97;;;23.20;99.90;;;;;;4985350;28;20052;-68
2022/03/28 02:30:14;;;;;;;8.32;3.72;;;23.40;99.90;;;;;;4985166;28;20034;-67
2022/03/28 02:32:42;;;;;;;6.65;3.08;;;23.50;99.90;;;;;;4988639;28;20022;-68
2022/03/28 02:35:11;;;;;;;8.82;2.40;;;23.40;99.90;;;;;;4983405;28;20062;-68
2022/03/28 02:37:39;;;;;;;6.68;2.17;;;23.30;99.90;;;;;;4979339;28;20409;-67
2022/03/28 02:40:08;;;;;;;12.20;2.40;;;23.40;99.90;;;;;;4990423;28;20027;-67
2022/03/28 02:42:35;;;;;;;9.45;3.47;;;23.40;99.90;;;;;;4992439;28;20023;-68
2022/03/28 02:45:04;;;;;;;5.70;2.35;;;23.60;99.90;;;;;;4990990;28;20058;-68
2022/03/28 02:47:31;;;;;;;9.63;2.55;;;23.60;99.90;;;;;;4989402;28;20478;-68
2022/03/28 02:49:59;;;;;;;8.95;2.58;;;23.80;99.90;;;;;;4986864;28;22229;-68
2022/03/28 02:52:27;;;;;;;6.90;2.58;;;23.60;99.90;;;;;;4992503;28;20026;-68
2022/03/28 02:54:54;;;;;;;6.75;2.15;;;23.70;99.90;;;;;;4987936;28;20022;-68
2022/03/28 02:57:22;;;;;;;5.28;1.95;;;23.80;99.90;;;;;;4995429;28;20034;-68
2022/03/28 02:59:49;;;;;;;8.57;2.72;;;23.90;99.90;;;;;;4988369;28;20801;-68
2022/03/28 03:02:16;;;;;;;9.55;2.97;;;23.80;99.90;;;;;;4991786;28;20031;-68
2022/03/28 03:07:50;;;;;;;7.20;2.58;;;24.00;99.90;;;;;;4990516;28;20041;-68
2022/03/28 03:10:18;;;;;;;6.00;1.67;;;24.10;99.90;;;;;;4988792;28;20473;-68
2022/03/28 03:12:45;;;;;;;6.53;1.98;;;24.10;99.90;;;;;;4990485;28;20018;-68
2022/03/28 03:15:13;;;;;;;3.67;1.38;;;24.20;99.90;;;;;;5006568;28;20040;-68
2022/03/28 03:17:40;;;;;;;4.82;2.10;;;24.10;99.90;;;;;;4992122;28;20068;-68
2022/03/28 03:20:08;;;;;;;7.65;2.22;;;24.10;99.90;;;;;;4984486;28;20123;-69
2022/03/28 03:22:36;;;;;;;6.95;1.92;;;24.20;99.90;;;;;;4991769;28;20026;-68
2022/03/28 03:25:04;;;;;;;8.35;1.70;;;24.20;99.90;;;;;;4992323;28;20026;-68
2022/03/28 03:27:31;;;;;;;4.93;1.77;;;24.10;99.90;;;;;;4982364;28;20053;-68
2022/03/28 03:29:59;;;;;;;7.03;1.85;;;24.00;99.90;;;;;;4981074;28;20139;-68
2022/03/28 03:32:26;;;;;;;4.30;1.55;;;23.90;99.90;;;;;;4998244;28;20056;-68
2022/03/28 03:34:55;;;;;;;7.10;1.70;;;23.90;99.90;;;;;;5003385;28;20022;-68
2022/03/28 03:37:22;;;;;;;5.60;1.40;;;23.90;99.90;;;;;;4985621;28;20034;-68
2022/03/28 03:39:49;;;;;;;6.25;2.03;;;23.90;99.90;;;;;;4984420;28;20499;-68
2022/03/28 03:42:17;;;;;;;5.85;2.20;;;23.60;99.90;;;;;;4990233;28;20108;-68
2022/03/28 03:44:44;;;;;;;5.07;1.70;;;23.60;99.90;;;;;;5006140;28;20053;-68
2022/03/28 03:47:12;;;;;;;8.68;2.03;;;23.60;99.90;;;;;;4989598;28;20030;-68
2022/03/28 03:49:40;;;;;;;4.80;2.03;;;23.50;99.90;;;;;;4987370;28;20387;-68
2022/03/28 03:52:10;;;;;;;5.32;1.67;;;23.40;99.90;;;;;;4989980;28;20168;-68
2022/03/28 03:54:37;;;;;;;6.68;1.90;;;23.30;99.90;;;;;;4988914;28;20109;-68
2022/03/28 03:57:05;;;;;;;5.50;1.70;;;23.30;99.90;;;;;;4992340;28;20022;-68
2022/03/28 03:59:32;;;;;;;5.72;2.30;;;23.20;99.90;;;;;;4992919;28;20408;-68
2022/03/28 04:02:00;;;;;;;6.22;2.03;;;23.20;99.90;;;;;;4988642;28;20413;-68
2022/03/28 04:04:27;;;;;;;7.22;1.60;;;23.20;99.90;;;;;;4989485;28;20026;-68
2022/03/28 04:06:55;;;;;;;7.43;1.77;;;23.20;99.90;;;;;;4991443;28;20030;-68
2022/03/28 04:09:23;;;;;;;4.28;1.67;;;23.30;99.90;;;;;;5004374;28;20026;-67
2022/03/28 04:11:50;;;;;;;6.57;1.75;;;23.40;99.90;;;;;;4991552;28;20031;-67
2022/03/28 04:14:18;;;;;;;6.32;2.20;;;23.40;99.90;;;;;;4989520;28;20037;-68
2022/03/28 04:16:46;;;;;;;6.13;2.55;;;23.40;99.90;;;;;;4993378;28;20041;-68
2022/03/28 04:19:14;;;;;;;5.60;2.50;;;23.60;99.90;;;;;;4991432;28;20273;-67
2022/03/28 04:21:43;;;;;;;4.45;2.08;;;23.60;99.90;;;;;;4988217;28;20030;-68
2022/03/28 04:24:10;;;;;;;4.88;2.17;;;23.60;99.90;;;;;;4985119;28;20026;-68
2022/03/28 04:26:37;;;;;;;4.78;2.03;;;23.60;99.90;;;;;;4988708;28;20092;-67
2022/03/28 04:29:05;;;;;;;4.30;2.00;;;23.80;99.90;;;;;;4989147;28;20061;-67
2022/03/28 04:31:33;;;;;;;5.95;2.10;;;23.70;99.90;;;;;;4983039;28;20030;-67
2022/03/28 04:34:02;;;;;;;4.72;2.65;;;23.60;99.90;;;;;;4989544;28;20022;-68
2022/03/28 04:36:31;;;;;;;4.97;2.25;;;23.60;99.90;;;;;;4984030;28;20038;-68
2022/03/28 04:38:58;;;;;;;11.63;3.15;;;23.60;99.90;;;;;;4987059;28;20022;-67
2022/03/28 04:41:26;;;;;;;6.97;2.42;;;23.60;99.90;;;;;;4989980;28;20045;-68
2022/03/28 04:43:55;;;;;;;6.72;2.47;;;23.50;99.90;;;;;;4991406;28;20434;-68
2022/03/28 04:46:23;;;;;;;6.55;2.60;;;23.50;99.90;;;;;;4990172;28;20129;-68
2022/03/28 04:48:52;;;;;;;5.35;2.58;;;23.30;99.90;;;;;;4993612;28;20037;-68
2022/03/28 04:51:26;;;;;;;5.47;2.40;;;23.30;99.90;;;;;;4993739;28;20038;-68
2022/03/28 04:53:54;;;;;;;5.78;2.58;;;23.20;99.90;;;;;;4991019;28;20030;-68
2022/03/28 04:56:22;;;;;;;5.75;2.75;;;23.20;99.90;;;;;;4982468;28;20033;-68
2022/03/28 04:58:49;;;;;;;7.00;3.35;;;23.20;99.90;;;;;;4983175;28;20395;-68
2022/03/28 05:01:17;;;;;;;11.30;3.03;;;23.20;99.90;;;;;;4990799;28;20024;-68
2022/03/28 05:03:44;;;;;;;9.38;3.05;;;23.20;99.90;;;;;;5008567;28;20030;-68
2022/03/28 05:06:12;;;;;;;8.32;3.10;;;23.20;99.90;;;;;;5006891;28;20105;-67
2022/03/28 05:08:40;;;;;;;6.35;2.60;;;23.20;99.90;;;;;;4992477;28;20030;-67
2022/03/28 05:11:12;;;;;;;10.68;2.75;;;23.20;99.90;;;;;;4991526;28;20068;-67
2022/03/28 05:13:39;;;;;;;8.13;2.28;;;23.10;99.90;;;;;;4993016;28;20033;-68
2022/03/28 05:16:07;;;;;;;5.93;1.90;;;23.00;99.90;;;;;;4984556;28;20544;-68
2022/03/28 05:18:35;;;;;;;5.70;2.08;;;23.00;99.90;;;;;;4990857;28;20026;-68
2022/03/28 05:21:03;;;;;;;8.48;2.55;;;23.00;99.90;;;;;;4991565;28;20084;-68
2022/03/28 05:23:30;;;;;;;6.03;1.80;;;22.90;99.90;;;;;;5004928;28;20057;-68
2022/03/28 05:25:57;;;;;;;7.55;2.38;;;22.90;99.90;;;;;;4989067;28;20054;-68
2022/03/28 05:28:25;;;;;;;8.18;2.80;;;22.90;99.90;;;;;;4989617;28;20034;-68
2022/03/28 05:30:52;;;;;;;5.97;2.05;;;22.90;99.90;;;;;;4985680;28;20022;-67
2022/03/28 05:33:21;;;;;;;5.38;1.80;;;22.90;99.90;;;;;;4990421;28;20156;-68
2022/03/28 05:35:48;;;;;;;7.57;2.25;;;22.90;99.90;;;;;;4991455;28;20030;-68
2022/03/28 05:38:16;;;;;;;6.35;1.90;;;22.90;99.90;;;;;;4991557;28;20041;-68
2022/03/28 05:40:43;;;;;;;11.07;2.35;;;22.90;99.90;;;;;;4977458;28;20161;-67
2022/03/28 05:43:11;;;;;;;9.73;2.53;;;22.90;99.90;;;;;;4991498;28;20019;-67
2022/03/28 05:45:39;;;;;;;5.18;2.33;;;22.90;99.90;;;;;;4989647;28;20057;-67
2022/03/28 05:48:07;;;;;;;6.53;3.17;;;22.90;99.90;;;;;;4986367;28;20498;-67
2022/03/28 05:50:34;;;;;;;5.28;2.00;;;23.00;99.90;;;;;;4987704;28;20553;-68
2022/03/28 05:53:02;;;;;;;6.45;1.67;;;23.10;99.90;;;;;;4985610;28;20034;-67
2022/03/28 05:55:30;;;;;;;7.72;2.25;;;23.20;99.90;;;;;;4978052;28;20387;-67
2022/03/28 05:57:58;;;;;;;7.88;2.33;;;23.10;99.90;;;;;;4980759;28;20046;-67
2022/03/28 06:00:27;;;;;;;7.82;2.75;;;23.10;99.90;;;;;;4987119;28;20026;-68
2022/03/28 06:02:55;;;;;;;5.90;2.30;;;23.10;99.90;;;;;;4991275;28;20025;-68
2022/03/28 06:05:22;;;;;;;8.93;2.42;;;23.10;99.90;;;;;;4989404;28;20042;-68
2022/03/28 06:07:50;;;;;;;6.50;3.70;;;23.10;99.90;;;;;;4988414;28;20031;-68
2022/03/28 06:10:18;;;;;;;4.60;2.50;;;23.10;99.90;;;;;;4986822;28;20082;-67
2022/03/28 06:12:46;;;;;;;11.60;2.50;;;23.00;99.90;;;;;;4988560;28;20061;-68
2022/03/28 06:15:13;;;;;;;5.43;2.55;;;23.00;99.90;;;;;;4983509;28;20027;-66
2022/03/28 06:17:43;;;;;;;8.40;2.45;;;23.00;99.90;;;;;;4989925;28;20027;-66
2022/03/28 06:20:14;;;;;;;5.68;2.17;;;23.00;99.90;;;;;;4990108;28;20027;-66
2022/03/28 06:22:46;;;;;;;9.82;2.08;;;22.90;99.90;;;;;;4985468;28;20018;-66
2022/03/28 06:25:15;;;;;;;7.32;3.53;;;22.80;99.90;;;;;;4989949;28;20125;-66
2022/03/28 06:27:42;;;;;;;9.82;2.95;;;22.70;99.90;;;;;;4993074;28;20066;-66
2022/03/28 06:30:11;;;;;;;8.82;3.85;;;22.70;99.90;;;;;;4991840;28;20135;-67
2022/03/28 06:32:40;;;;;;;9.43;4.35;;;22.60;99.90;;;;;;4993634;28;20379;-67
2022/03/28 06:35:09;;;;;;;9.75;3.03;;;22.60;99.90;;;;;;4991427;28;21620;-66
2022/03/28 06:37:37;;;;;;;9.15;2.72;;;22.50;99.90;;;;;;4991684;28;20030;-66
2022/03/28 06:40:06;;;;;;;7.28;2.15;;;22.50;99.90;;;;;;4984910;28;20114;-66
2022/03/28 06:42:34;;;;;;;8.10;1.27;;;22.40;99.90;;;;;;4990876;28;20633;-66
2022/03/28 06:45:03;;;;;;;4.68;1.50;;;22.20;99.90;;;;;;4990681;28;20102;-66
2022/03/28 06:47:30;;;;;;;6.63;1.83;;;22.20;99.90;;;;;;4991867;28;20018;-67
2022/03/28 06:49:58;;;;;;;6.75;1.45;;;22.20;99.90;;;;;;4987371;28;20069;-66
2022/03/28 06:52:26;;;;;;;7.03;1.95;;;22.10;99.90;;;;;;5002863;28;20034;-66
2022/03/28 06:54:54;;;;;;;9.55;2.63;;;22.20;99.90;;;;;;4989677;28;20030;-66
2022/03/28 06:57:21;;;;;;;6.30;1.63;;;22.20;99.90;;;;;;4990490;28;20026;-67
2022/03/28 06:59:49;;;;;;;7.25;1.52;;;22.20;99.90;;;;;;4988932;28;20038;-66
2022/03/28 07:02:16;;;;;;;8.50;1.70;;;22.20;99.90;;;;;;4986307;28;20034;-66
2022/03/28 07:04:44;;;;;;;7.85;1.30;;;22.10;99.90;;;;;;4991251;28;20049;-67
2022/03/28 07:07:11;;;;;;;7.25;1.05;;;22.10;99.90;;;;;;4993212;28;20062;-67
2022/03/28 07:09:39;;;;;;;4.35;0.88;;;22.10;99.90;;;;;;4983959;28;20062;-67
2022/03/28 07:12:09;;;;;;;3.78;0.50;;;22.00;99.90;;;;;;4992994;28;20076;-66
2022/03/28 07:14:40;;;;;;;5.60;1.00;;;22.00;99.90;;;;;;4989715;28;20038;-66
2022/03/28 07:17:07;;;;;;;5.10;0.73;;;22.00;99.90;;;;;;4993173;28;20275;-67
2022/03/28 07:19:35;;;;;;;8.80;1.27;;;22.00;99.90;;;;;;4980899;28;20044;-67
2022/03/28 07:22:03;;;;;;;6.15;1.30;;;22.00;99.90;;;;;;4992098;28;20026;-67
2022/03/28 07:24:31;;;;;;;9.48;1.08;;;22.00;99.90;;;;;;4987663;28;20019;-67
2022/03/28 07:26:58;;;;;;;10.95;1.90;;;21.90;99.90;;;;;;4987127;28;20370;-67
2022/03/28 07:29:25;;;;;;;8.60;1.83;;;21.90;99.90;;;;;;4989042;28;20053;-67
2022/03/28 07:31:54;;;;;;;17.70;4.00;;;22.00;99.90;;;;;;4991568;28;20402;-67
2022/03/28 07:34:30;;;;;;;14.52;2.42;;;21.90;99.90;;;;;;4987250;28;20026;-67
2022/03/28 07:37:05;;;;;;;11.30;1.33;;;21.90;99.90;;;;;;4990503;28;20446;-67
2022/03/28 07:39:34;;;;;;;5.40;0.80;;;21.90;99.90;;;;;;4986066;28;20503;-66
2022/03/28 07:42:02;;;;;;;11.20;1.58;;;21.90;99.90;;;;;;4986602;28;20026;-67
2022/03/28 07:44:29;;;;;;;5.47;1.10;;;21.90;99.90;;;;;;4988258;28;20154;-67
2022/03/28 07:46:57;;;;;;;10.52;1.88;;;21.90;99.90;;;;;;4992000;28;20030;-67
2022/03/28 07:49:24;;;;;;;7.43;1.50;;;21.90;99.90;;;;;;4984677;28;20525;-67
2022/03/28 07:51:52;;;;;;;11.82;2.70;;;21.90;99.90;;;;;;4994021;28;20553;-66
2022/03/28 07:54:19;;;;;;;5.82;1.52;;;21.80;99.90;;;;;;4989814;28;20037;-67
2022/03/28 07:56:46;;;;;;;10.00;1.65;;;21.80;99.90;;;;;;4989307;28;20041;-67
2022/03/28 07:59:16;;;;;;;10.02;1.40;;;21.80;99.90;;;;;;4987734;28;20038;-67
2022/03/28 08:01:43;;;;;;;3.88;1.38;;;21.80;99.90;;;;;;4991048;28;20049;-67
2022/03/28 08:04:11;;;;;;;7.82;1.85;;;21.80;99.90;;;;;;4991331;28;20101;-67
2022/03/28 08:06:42;;;;;;;8.20;1.23;;;21.80;99.90;;;;;;5006656;28;20077;-67
2022/03/28 08:09:10;;;;;;;6.15;0.90;;;21.80;99.90;;;;;;4988054;28;20061;-67
2022/03/28 08:11:37;;;;;;;7.45;1.90;;;21.80;99.90;;;;;;4989059;28;20050;-67
2022/03/28 08:14:05;;;;;;;8.73;1.25;;;21.70;99.90;;;;;;4989966;28;20022;-67
2022/03/28 08:16:33;;;;;;;8.07;1.40;;;21.70;99.90;;;;;;5003546;28;20121;-66
2022/03/28 08:19:01;;;;;;;5.38;1.10;;;21.70;99.90;;;;;;5003487;28;20043;-67
2022/03/28 08:21:29;;;;;;;5.57;0.85;;;21.70;99.90;;;;;;4989385;28;20026;-67
2022/03/28 08:23:57;;;;;;;5.05;0.93;;;21.70;99.90;;;;;;4988366;28;20015;-67
2022/03/28 08:26:25;;;;;;;3.70;1.42;;;21.70;99.90;;;;;;4988690;28;20037;-67
2022/03/28 08:28:53;;;;;;;6.03;1.40;;;21.70;99.90;;;;;;4990212;28;20037;-67
2022/03/28 08:31:21;;;;;;;6.97;1.42;;;21.70;99.90;;;;;;4988299;28;20026;-66
2022/03/28 08:33:48;;;;;;;5.75;0.80;;;21.70;99.90;;;;;;4988636;28;20434;-67
2022/03/28 08:36:16;;;;;;;6.65;1.45;;;21.70;99.90;;;;;;4989656;28;20030;-67
2022/03/28 08:38:46;;;;;;;6.10;1.23;;;21.70;99.90;;;;;;4983605;28;20070;-67
2022/03/28 08:41:17;;;;;;;8.02;1.85;;;21.70;99.90;;;;;;4989278;28;20018;-67
2022/03/28 08:43:45;;;;;;;6.60;1.15;;;21.70;99.90;;;;;;4989427;28;20618;-67
2022/03/28 08:46:15;;;;;;;9.13;1.13;;;21.70;99.90;;;;;;4988419;28;20057;-67
2022/03/28 08:48:44;;;;;;;5.28;1.13;;;21.70;99.90;;;;;;4991412;28;20113;-67
2022/03/28 08:51:13;;;;;;;6.78;1.25;;;21.70;99.90;;;;;;4992575;28;20038;-67
2022/03/28 08:53:41;;;;;;;5.18;0.90;;;21.70;99.90;;;;;;4987896;28;20027;-66
2022/03/28 08:56:08;;;;;;;4.35;1.00;;;21.70;99.90;;;;;;5000928;28;20066;-67
2022/03/28 08:58:36;;;;;;;4.65;1.20;;;21.70;99.90;;;;;;4986395;28;20022;-67
2022/03/28 09:01:05;;;;;;;7.35;1.17;;;21.70;99.90;;;;;;4988206;28;20058;-67
2022/03/28 09:03:46;;;;;;;5.38;1.23;;;21.70;99.90;;;;;;4990604;28;20033;-67
2022/03/28 09:06:32;;;;;;;2.95;0.75;;;21.70;99.90;;;;;;4988407;28;20085;-67
2022/03/28 09:09:26;;;;;;;6.53;0.75;;;21.70;99.90;;;;;;5004076;28;20490;-67
2022/03/28 09:11:56;;;;;;;5.13;0.77;;;21.70;99.90;;;;;;4988628;28;20029;-67
2022/03/28 09:14:32;;;;;;;7.38;1.48;;;21.70;99.90;;;;;;4985675;28;20042;-67
2022/03/28 09:17:10;;;;;;;6.18;1.00;;;21.70;99.90;;;;;;4988423;28;20034;-67
2022/03/28 09:19:55;;;;;;;8.30;1.42;;;21.70;99.90;;;;;;4989344;28;20034;-67
2022/03/28 09:22:25;;;;;;;3.75;0.52;;;21.70;99.90;;;;;;4984240;28;20027;-67
2022/03/28 09:24:54;;;;;;;9.80;1.25;;;21.70;99.90;;;;;;4983935;28;20023;-67
2022/03/28 09:27:28;;;;;;;5.32;0.98;;;21.70;99.90;;;;;;4989008;28;20030;-67
2022/03/28 09:30:10;;;;;;;4.07;1.02;;;21.70;99.90;;;;;;5000940;28;20126;-67
2022/03/28 09:32:49;;;;;;;4.32;1.13;;;21.70;99.90;;;;;;4984079;28;20499;-67
2022/03/28 09:35:20;;;;;;;9.35;1.95;;;21.70;99.90;;;;;;4988713;28;20076;-67
2022/03/28 09:37:49;;;;;;;6.43;1.02;;;21.70;99.90;;;;;;4984842;28;20038;-67
2022/03/28 09:40:36;;;;;;;4.15;1.10;;;21.70;99.90;;;;;;4987697;28;20046;-67
2022/03/28 09:43:07;;;;;;;4.43;0.50;;;21.70;99.90;;;;;;4988142;28;20023;-67
2022/03/28 09:45:39;;;;;;;8.38;2.10;;;21.70;99.90;;;;;;4988629;28;20798;-67
2022/03/28 09:48:09;;;;;;;6.22;1.15;;;21.70;99.90;;;;;;4992447;28;20023;-67
2022/03/28 09:50:43;;;;;;;4.60;0.82;;;21.70;99.90;;;;;;4993134;28;20022;-67
2022/03/28 09:53:18;;;;;;;6.57;1.10;;;21.70;99.90;;;;;;4992844;28;20049;-67
2022/03/28 09:55:54;;;;;;;5.32;1.15;;;21.70;99.90;;;;;;4989977;28;20027;-67
2022/03/28 09:58:48;;;;;;;5.55;1.17;;;21.70;99.90;;;;;;4991385;28;20042;-67
2022/03/28 10:01:24;;;;;;;5.80;1.58;;;21.70;99.90;;;;;;4989593;28;20034;-67
2022/03/28 10:03:54;;;;;;;8.15;1.75;;;21.70;99.90;;;;;;5008380;28;20066;-67
2022/03/28 10:06:21;;;;;;;10.52;1.08;;;21.60;99.90;;;;;;5003105;28;20054;-67
2022/03/28 10:08:50;;;;;;;9.15;1.35;;;21.60;99.90;;;;;;4991066;28;20042;-66
2022/03/28 10:11:18;;;;;;;6.68;1.20;;;21.60;99.90;;;;;;5005166;28;20027;-67
2022/03/28 10:13:46;;;;;;;7.55;1.38;;;21.60;99.90;;;;;;4993520;28;20022;-67
2022/03/28 10:16:14;;;;;;;8.52;1.70;;;21.50;99.90;;;;;;4988768;28;20057;-67
2022/03/28 10:18:45;;;;;;;7.18;1.02;;;21.50;99.90;;;;;;4993589;28;20057;-67
2022/03/28 10:21:21;;;;;;;6.57;1.73;;;21.50;99.90;;;;;;4990131;28;20069;-67
2022/03/28 10:24:04;;;;;;;11.52;1.65;;;21.50;99.90;;;;;;4991794;28;20088;-67
2022/03/28 10:26:44;;;;;;;7.35;1.08;;;21.40;99.90;;;;;;4991568;28;20569;-67
2022/03/28 10:29:13;;;;;;;12.00;1.48;;;21.40;99.90;;;;;;4991878;28;20031;-67
2022/03/28 10:32:00;;;;;;;6.20;0.95;;;21.30;99.90;;;;;;4990778;28;20530;-67
2022/03/28 10:34:41;;;;;;;8.75;1.80;;;21.20;99.90;;;;;;4992240;28;20041;-67
2022/03/28 10:37:30;;;;;;;8.63;1.55;;;21.20;99.90;;;;;;4990690;28;20041;-67
2022/03/28 10:40:22;;;;;;;5.20;0.95;;;21.10;99.90;;;;;;4989749;28;20022;-67
2022/03/28 10:43:00;;;;;;;5.85;1.40;;;21.10;99.90;;;;;;4989352;28;20478;-67
2022/03/28 10:45:50;;;;;;;7.85;1.20;;;21.10;99.90;;;;;;4984313;28;20046;-67
2022/03/28 10:48:32;;;;;;;9.75;1.65;;;21.10;99.90;;;;;;4992563;28;20109;-67
2022/03/28 10:51:14;;;;;;;7.85;1.58;;;21.00;99.90;;;;;;4987330;28;20154;-67
2022/03/28 10:53:52;;;;;;;7.75;1.50;;;21.00;99.90;;;;;;4989698;28;20475;-68
2022/03/28 10:56:26;;;;;;;6.07;1.65;;;21.00;99.90;;;;;;4990117;28;20041;-68
2022/03/28 10:58:59;;;;;;;7.68;1.35;;;21.00;99.90;;;;;;4990540;28;20054;-68
2022/03/28 11:01:34;;;;;;;9.35;2.60;;;20.90;99.90;;;;;;4990695;28;20042;-68
2022/03/28 11:04:15;;;;;;;9.10;1.58;;;20.90;99.90;;;;;;4989198;28;20027;-68
2022/03/28 11:06:52;;;;;;;14.45;2.05;;;20.80;99.90;;;;;;4988003;28;20037;-68
2022/03/28 11:09:41;;;;;;;14.38;1.88;;;20.90;99.90;;;;;;4990287;28;20110;-68
2022/03/28 11:12:20;;;;;;;10.10;2.25;;;20.90;99.90;;;;;;5001526;28;20034;-68
2022/03/28 11:14:51;;;;;;;6.45;1.33;;;20.80;99.90;;;;;;4990015;28;20033;-68
2022/03/28 11:17:25;;;;;;;6.85;1.40;;;20.80;99.90;;;;;;4984201;28;20454;-68
2022/03/28 11:20:11;;;;;;;12.70;2.10;;;20.80;99.90;;;;;;4992262;28;20030;-68
2022/03/28 11:22:48;;;;;;;13.27;1.67;;;20.70;99.90;;;;;;4988574;28;20185;-68
2022/03/28 11:25:35;;;;;;;7.68;1.20;;;20.80;99.90;;;;;;4991535;28;20034;-68
2022/03/28 11:28:10;;;;;;;12.30;2.20;;;20.70;99.90;;;;;;4988094;28;20110;-69
2022/03/28 11:30:49;;;;;;;15.48;2.42;;;20.70;99.90;;;;;;4983543;28;20459;-67
2022/03/28 11:33:18;;;;;;;14.63;2.17;;;20.70;99.90;;;;;;4989637;28;20031;-68
2022/03/28 11:36:02;;;;;;;11.40;2.22;;;20.70;99.90;;;;;;5002161;28;20034;-68
2022/03/28 11:38:40;;;;;;;12.23;2.28;;;20.70;99.90;;;;;;4989457;28;20026;-68
2022/03/28 11:41:09;;;;;;;8.68;1.73;;;20.70;99.90;;;;;;4987117;28;20033;-68
2022/03/28 11:43:39;;;;;;;12.23;2.38;;;20.70;99.90;;;;;;4990281;28;20057;-68
2022/03/28 11:46:20;;;;;;;13.55;2.67;;;20.70;99.90;;;;;;5003825;28;20081;-68
2022/03/28 11:48:59;;;;;;;14.00;2.88;;;20.80;99.90;;;;;;4989631;28;20041;-68
2022/03/28 11:51:30;;;;;;;14.20;3.05;;;20.80;99.90;;;;;;4987087;28;20380;-68
2022/03/28 11:54:11;;;;;;;11.70;2.95;;;20.70;99.90;;;;;;4990454;28;20072;-68
2022/03/28 11:59:26;;;;;;;15.52;2.58;;;20.70;99.90;;;;;;4990418;28;20033;-68
2022/03/28 12:02:11;;;;;;;9.80;1.63;;;20.70;99.90;;;;;;4991605;28;20045;-68
2022/03/28 12:04:49;;;;;;;14.13;2.78;;;20.60;99.90;;;;;;4987895;28;20029;-68
2022/03/28 12:07:19;;;;;;;9.23;1.55;;;20.60;99.90;;;;;;4989025;28;20033;-69
2022/03/28 12:09:47;;;;;;;12.50;1.92;;;20.60;99.90;;;;;;4990077;28;20026;-69
2022/03/28 12:12:15;;;;;;;9.23;1.50;;;20.60;99.90;;;;;;4991192;28;20035;-66
2022/03/28 12:14:43;;;;;;;8.77;1.50;;;20.50;99.90;;;;;;4988891;28;20026;-66
2022/03/28 12:17:12;;;;;;;11.85;1.85;;;20.50;99.90;;;;;;4990267;28;20036;-66
2022/03/28 12:19:39;;;;;;;10.40;1.92;;;20.50;99.90;;;;;;4988965;28;20033;-66
2022/03/28 12:22:21;;;;;;;13.65;2.45;;;20.50;99.90;;;;;;4989192;28;20483;-66
2022/03/28 12:24:53;;;;;;;9.57;1.30;;;20.40;99.90;;;;;;4987303;28;20063;-67
2022/03/28 12:27:21;;;;;;;16.30;2.63;;;20.40;99.90;;;;;;4987040;28;20109;-66
2022/03/28 12:29:52;;;;;;;11.15;2.00;;;20.40;99.90;;;;;;4993111;28;20537;-67
2022/03/28 12:32:21;;;;;;;8.02;1.60;;;20.40;99.90;;;;;;4990521;28;20498;-67
2022/03/28 12:34:48;;;;;;;9.55;1.30;;;20.40;99.90;;;;;;4993126;28;20415;-69
2022/03/28 12:37:17;;;;;;;11.35;1.90;;;20.40;99.90;;;;;;4993711;28;20033;-66
2022/03/28 12:39:45;;;;;;;15.27;2.05;;;20.40;99.90;;;;;;4988029;28;20559;-66
2022/03/28 12:42:28;;;;;;;14.68;2.55;;;20.40;99.90;;;;;;4991301;28;20042;-67
2022/03/28 12:44:56;;;;;;;8.30;1.70;;;20.40;99.90;;;;;;4975772;28;20042;-67
2022/03/28 12:47:27;;;;;;;7.32;1.25;;;20.40;99.90;;;;;;4973161;28;20022;-67
2022/03/28 12:49:58;;;;;;;9.43;1.80;;;20.30;99.90;;;;;;4975365;28;20032;-68
2022/03/28 12:52:32;;;;;;;8.10;1.77;;;20.30;99.90;;;;;;4984360;28;20390;-68
2022/03/28 12:54:59;;;;;;;8.75;2.00;;;20.30;99.90;;;;;;4984745;28;20050;-68
2022/03/28 12:57:30;;;;;;;6.85;2.10;;;20.40;99.90;;;;;;4987823;28;20097;-68
2022/03/28 12:59:58;;;;;;;6.38;1.83;;;20.30;99.90;;;;;;4991547;28;20088;-68
2022/03/28 13:02:25;;;;;;;5.38;1.40;;;20.30;99.90;;;;;;4989346;28;20058;-68
2022/03/28 13:04:56;;;;;;;10.55;2.20;;;20.30;99.90;;;;;;4973116;28;20027;-68
2022/03/28 13:07:29;;;;;;;13.77;2.50;;;20.30;99.90;;;;;;4986637;28;20541;-68